sensor_id;sensor_type;location;lat;lon;timestamp;P1;durP1;ratioP1;P2;durP2;ratioP2
15516;SDS011;7860;52.030;5.572;2022-11-22T00:02:45;18.82;;;5.78;;
15516;SDS011;7860;52.030;5.572;2022-11-22T00:02:45;14.43;;;5.92;;
15516;SDS011;7860;52.030;5.572;2022-11-22T00:02:45;14.47;;;5.06;;
15516;SDS011;7860;52.030;5.572;2022-11-22T00:03:10;13.68;;;5.47;;
15516;SDS011;7860;52.030;5.572;2022-11-22T00:04:11;13.54;;;5.57;;
15516;SDS011;7860;52.030;5.572;2022-11-22T00:05:11;14.88;;;5.71;;
15516;SDS011;7860;52.030;5.572;2022-11-22T00:06:12;13.38;;;5.76;;
15516;SDS011;7860;52.030;5.572;2022-11-22T00:07:13;16.45;;;5.33;;
15516;SDS011;7860;52.030;5.572;2022-11-22T00:08:13;14.29;;;5.57;;
15516;SDS011;7860;52.030;5.572;2022-11-22T00:09:14;13.50;;;5.68;;
15516;SDS011;7860;52.030;5.572;2022-11-22T00:10:15;14.50;;;5.73;;
15516;SDS011;7860;52.030;5.572;2022-11-22T00:11:16;14.56;;;6.12;;
15516;SDS011;7860;52.030;5.572;2022-11-22T00:12:16;15.93;;;6.08;;
15516;SDS011;7860;52.030;5.572;2022-11-22T00:13:17;15.17;;;6.08;;
15516;SDS011;7860;52.030;5.572;2022-11-22T00:14:17;13.49;;;6.18;;
15516;SDS011;7860;52.030;5.572;2022-11-22T00:15:18;16.06;;;6.72;;
15516;SDS011;7860;52.030;5.572;2022-11-22T00:16:18;14.06;;;5.91;;
15516;SDS011;7860;52.030;5.572;2022-11-22T00:17:19;11.83;;;5.83;;
15516;SDS011;7860;52.030;5.572;2022-11-22T00:18:20;13.82;;;6.28;;
15516;SDS011;7860;52.030;5.572;2022-11-22T00:19:20;13.08;;;6.69;;
15516;SDS011;7860;52.030;5.572;2022-11-22T00:20:21;15.33;;;6.83;;
15516;SDS011;7860;52.030;5.572;2022-11-22T00:21:22;17.63;;;6.78;;
15516;SDS011;7860;52.030;5.572;2022-11-22T00:22:22;13.47;;;6.80;;
15516;SDS011;7860;52.030;5.572;2022-11-22T00:23:23;15.35;;;6.80;;
15516;SDS011;7860;52.030;5.572;2022-11-22T00:24:23;14.79;;;7.02;;
15516;SDS011;7860;52.030;5.572;2022-11-22T00:25:23;15.63;;;7.37;;
15516;SDS011;7860;52.030;5.572;2022-11-22T00:26:23;13.42;;;6.63;;
15516;SDS011;7860;52.030;5.572;2022-11-22T00:27:24;16.81;;;6.60;;
15516;SDS011;7860;52.030;5.572;2022-11-22T00:28:25;14.87;;;6.88;;
15516;SDS011;7860;52.030;5.572;2022-11-22T00:29:26;16.56;;;6.93;;
15516;SDS011;7860;52.030;5.572;2022-11-22T00:30:26;16.95;;;7.20;;
15516;SDS011;7860;52.030;5.572;2022-11-22T00:31:27;13.20;;;6.74;;
15516;SDS011;7860;52.030;5.572;2022-11-22T00:32:27;13.04;;;6.26;;
15516;SDS011;7860;52.030;5.572;2022-11-22T00:33:28;17.56;;;7.12;;
15516;SDS011;7860;52.030;5.572;2022-11-22T00:34:28;14.99;;;6.96;;
15516;SDS011;7860;52.030;5.572;2022-11-22T00:35:29;16.11;;;6.97;;
15516;SDS011;7860;52.030;5.572;2022-11-22T00:36:29;14.83;;;6.93;;
15516;SDS011;7860;52.030;5.572;2022-11-22T00:37:30;16.07;;;6.71;;
15516;SDS011;7860;52.030;5.572;2022-11-22T00:38:30;13.13;;;6.57;;
15516;SDS011;7860;52.030;5.572;2022-11-22T00:39:31;17.05;;;6.39;;
15516;SDS011;7860;52.030;5.572;2022-11-22T00:40:32;15.70;;;6.33;;
15516;SDS011;7860;52.030;5.572;2022-11-22T00:41:32;16.48;;;6.63;;
15516;SDS011;7860;52.030;5.572;2022-11-22T00:42:33;15.42;;;6.66;;
15516;SDS011;7860;52.030;5.572;2022-11-22T00:43:33;13.60;;;6.34;;
15516;SDS011;7860;52.030;5.572;2022-11-22T00:44:34;19.09;;;6.77;;
15516;SDS011;7860;52.030;5.572;2022-11-22T00:45:35;13.80;;;6.70;;
15516;SDS011;7860;52.030;5.572;2022-11-22T00:46:36;16.52;;;7.05;;
15516;SDS011;7860;52.030;5.572;2022-11-22T00:47:36;15.41;;;6.97;;
15516;SDS011;7860;52.030;5.572;2022-11-22T00:48:37;12.37;;;6.63;;
15516;SDS011;7860;52.030;5.572;2022-11-22T00:49:37;15.25;;;6.87;;
15516;SDS011;7860;52.030;5.572;2022-11-22T00:50:38;16.00;;;7.07;;
15516;SDS011;7860;52.030;5.572;2022-11-22T00:51:38;12.91;;;6.62;;
15516;SDS011;7860;52.030;5.572;2022-11-22T00:52:38;13.98;;;6.58;;
15516;SDS011;7860;52.030;5.572;2022-11-22T00:53:38;17.21;;;6.89;;
15516;SDS011;7860;52.030;5.572;2022-11-22T00:54:39;17.28;;;6.54;;
15516;SDS011;7860;52.030;5.572;2022-11-22T00:55:39;16.06;;;6.67;;
15516;SDS011;7860;52.030;5.572;2022-11-22T00:56:39;16.32;;;6.96;;
15516;SDS011;7860;52.030;5.572;2022-11-22T00:57:40;15.78;;;7.06;;
15516;SDS011;7860;52.030;5.572;2022-11-22T00:58:40;14.07;;;6.49;;
15516;SDS011;7860;52.030;5.572;2022-11-22T00:59:40;16.44;;;7.12;;
15516;SDS011;7860;52.030;5.572;2022-11-22T01:00:41;18.31;;;6.97;;
15516;SDS011;7860;52.030;5.572;2022-11-22T01:01:41;17.06;;;6.95;;
15516;SDS011;7860;52.030;5.572;2022-11-22T01:02:42;15.21;;;6.68;;
15516;SDS011;7860;52.030;5.572;2022-11-22T01:03:42;18.13;;;6.97;;
15516;SDS011;7860;52.030;5.572;2022-11-22T01:04:43;15.98;;;7.10;;
15516;SDS011;7860;52.030;5.572;2022-11-22T01:05:43;18.27;;;7.09;;
15516;SDS011;7860;52.030;5.572;2022-11-22T01:06:44;14.91;;;6.91;;
15516;SDS011;7860;52.030;5.572;2022-11-22T01:07:44;15.11;;;7.42;;
15516;SDS011;7860;52.030;5.572;2022-11-22T01:08:45;17.16;;;7.27;;
15516;SDS011;7860;52.030;5.572;2022-11-22T01:09:45;14.34;;;6.88;;
15516;SDS011;7860;52.030;5.572;2022-11-22T01:10:45;14.23;;;6.46;;
15516;SDS011;7860;52.030;5.572;2022-11-22T01:11:46;15.44;;;6.84;;
15516;SDS011;7860;52.030;5.572;2022-11-22T01:12:46;15.99;;;7.22;;
15516;SDS011;7860;52.030;5.572;2022-11-22T01:13:47;15.68;;;7.18;;
15516;SDS011;7860;52.030;5.572;2022-11-22T01:14:48;17.35;;;7.18;;
15516;SDS011;7860;52.030;5.572;2022-11-22T01:15:48;17.42;;;7.07;;
15516;SDS011;7860;52.030;5.572;2022-11-22T01:16:48;15.76;;;7.51;;
15516;SDS011;7860;52.030;5.572;2022-11-22T01:17:49;18.21;;;6.97;;
15516;SDS011;7860;52.030;5.572;2022-11-22T01:18:49;16.34;;;7.18;;
15516;SDS011;7860;52.030;5.572;2022-11-22T01:19:50;17.13;;;7.14;;
15516;SDS011;7860;52.030;5.572;2022-11-22T01:20:50;15.13;;;7.14;;
15516;SDS011;7860;52.030;5.572;2022-11-22T01:21:50;15.91;;;6.59;;
15516;SDS011;7860;52.030;5.572;2022-11-22T01:22:51;16.74;;;6.64;;
15516;SDS011;7860;52.030;5.572;2022-11-22T01:23:51;17.34;;;6.71;;
15516;SDS011;7860;52.030;5.572;2022-11-22T01:24:52;16.91;;;6.81;;
15516;SDS011;7860;52.030;5.572;2022-11-22T01:25:52;11.93;;;6.39;;
15516;SDS011;7860;52.030;5.572;2022-11-22T01:26:53;15.35;;;6.45;;
15516;SDS011;7860;52.030;5.572;2022-11-22T01:27:54;14.08;;;6.79;;
15516;SDS011;7860;52.030;5.572;2022-11-22T01:28:54;14.07;;;6.49;;
15516;SDS011;7860;52.030;5.572;2022-11-22T01:29:54;18.93;;;7.39;;
15516;SDS011;7860;52.030;5.572;2022-11-22T01:30:55;15.84;;;6.85;;
15516;SDS011;7860;52.030;5.572;2022-11-22T01:31:55;15.70;;;6.78;;
15516;SDS011;7860;52.030;5.572;2022-11-22T01:32:56;17.20;;;7.12;;
15516;SDS011;7860;52.030;5.572;2022-11-22T01:33:56;15.13;;;6.62;;
15516;SDS011;7860;52.030;5.572;2022-11-22T01:34:57;18.65;;;7.26;;
15516;SDS011;7860;52.030;5.572;2022-11-22T01:35:57;13.95;;;6.18;;
15516;SDS011;7860;52.030;5.572;2022-11-22T01:36:57;14.31;;;6.80;;
15516;SDS011;7860;52.030;5.572;2022-11-22T01:37:58;14.32;;;6.90;;
15516;SDS011;7860;52.030;5.572;2022-11-22T01:38:58;15.15;;;6.60;;
15516;SDS011;7860;52.030;5.572;2022-11-22T01:39:58;18.43;;;6.60;;
15516;SDS011;7860;52.030;5.572;2022-11-22T01:40:58;15.57;;;6.65;;
15516;SDS011;7860;52.030;5.572;2022-11-22T01:41:59;17.28;;;6.83;;
15516;SDS011;7860;52.030;5.572;2022-11-22T01:43:00;14.89;;;6.59;;
15516;SDS011;7860;52.030;5.572;2022-11-22T01:44:16;17.41;;;6.46;;
15516;SDS011;7860;52.030;5.572;2022-11-22T01:45:31;19.23;;;7.28;;
15516;SDS011;7860;52.030;5.572;2022-11-22T01:46:02;16.14;;;6.52;;
15516;SDS011;7860;52.030;5.572;2022-11-22T01:47:03;16.24;;;7.09;;
15516;SDS011;7860;52.030;5.572;2022-11-22T01:48:05;18.49;;;6.75;;
15516;SDS011;7860;52.030;5.572;2022-11-22T01:49:05;17.36;;;7.03;;
15516;SDS011;7860;52.030;5.572;2022-11-22T01:50:05;16.70;;;6.82;;
15516;SDS011;7860;52.030;5.572;2022-11-22T01:51:06;18.40;;;7.20;;
15516;SDS011;7860;52.030;5.572;2022-11-22T01:52:06;16.23;;;6.83;;
15516;SDS011;7860;52.030;5.572;2022-11-22T01:53:08;17.62;;;6.98;;
15516;SDS011;7860;52.030;5.572;2022-11-22T01:54:07;13.81;;;6.47;;
15516;SDS011;7860;52.030;5.572;2022-11-22T01:55:08;17.08;;;7.05;;
15516;SDS011;7860;52.030;5.572;2022-11-22T01:56:08;14.16;;;6.60;;
15516;SDS011;7860;52.030;5.572;2022-11-22T01:57:09;19.37;;;7.07;;
15516;SDS011;7860;52.030;5.572;2022-11-22T01:58:09;17.83;;;6.72;;
15516;SDS011;7860;52.030;5.572;2022-11-22T01:59:10;18.81;;;7.11;;
15516;SDS011;7860;52.030;5.572;2022-11-22T02:00:11;19.94;;;7.44;;
15516;SDS011;7860;52.030;5.572;2022-11-22T02:01:10;16.14;;;7.18;;
15516;SDS011;7860;52.030;5.572;2022-11-22T02:02:11;18.47;;;7.02;;
15516;SDS011;7860;52.030;5.572;2022-11-22T02:03:12;17.48;;;7.04;;
15516;SDS011;7860;52.030;5.572;2022-11-22T02:04:12;17.88;;;6.94;;
15516;SDS011;7860;52.030;5.572;2022-11-22T02:05:14;16.31;;;6.84;;
15516;SDS011;7860;52.030;5.572;2022-11-22T02:06:12;17.71;;;7.03;;
15516;SDS011;7860;52.030;5.572;2022-11-22T02:07:14;16.95;;;7.43;;
15516;SDS011;7860;52.030;5.572;2022-11-22T02:08:14;15.80;;;6.81;;
15516;SDS011;7860;52.030;5.572;2022-11-22T02:09:14;15.54;;;6.78;;
15516;SDS011;7860;52.030;5.572;2022-11-22T02:10:14;18.89;;;6.91;;
15516;SDS011;7860;52.030;5.572;2022-11-22T02:11:15;16.38;;;6.82;;
15516;SDS011;7860;52.030;5.572;2022-11-22T02:12:15;15.78;;;6.95;;
15516;SDS011;7860;52.030;5.572;2022-11-22T02:13:16;18.08;;;6.68;;
15516;SDS011;7860;52.030;5.572;2022-11-22T02:14:18;15.18;;;6.80;;
15516;SDS011;7860;52.030;5.572;2022-11-22T02:15:17;17.71;;;6.83;;
15516;SDS011;7860;52.030;5.572;2022-11-22T02:16:17;17.90;;;6.33;;
15516;SDS011;7860;52.030;5.572;2022-11-22T02:17:18;19.68;;;7.21;;
15516;SDS011;7860;52.030;5.572;2022-11-22T02:18:18;17.71;;;6.62;;
15516;SDS011;7860;52.030;5.572;2022-11-22T02:19:21;19.47;;;6.70;;
15516;SDS011;7860;52.030;5.572;2022-11-22T02:20:19;15.44;;;6.37;;
15516;SDS011;7860;52.030;5.572;2022-11-22T02:21:20;14.20;;;6.22;;
15516;SDS011;7860;52.030;5.572;2022-11-22T02:22:23;18.18;;;6.67;;
15516;SDS011;7860;52.030;5.572;2022-11-22T02:23:22;17.35;;;6.31;;
15516;SDS011;7860;52.030;5.572;2022-11-22T02:24:22;15.57;;;6.24;;
15516;SDS011;7860;52.030;5.572;2022-11-22T02:25:24;16.13;;;6.49;;
15516;SDS011;7860;52.030;5.572;2022-11-22T02:26:23;14.39;;;5.96;;
15516;SDS011;7860;52.030;5.572;2022-11-22T02:27:23;18.51;;;5.91;;
15516;SDS011;7860;52.030;5.572;2022-11-22T02:28:24;14.36;;;5.77;;
15516;SDS011;7860;52.030;5.572;2022-11-22T02:29:24;17.40;;;6.21;;
15516;SDS011;7860;52.030;5.572;2022-11-22T02:30:24;15.22;;;5.70;;
15516;SDS011;7860;52.030;5.572;2022-11-22T02:31:42;16.29;;;5.63;;
15516;SDS011;7860;52.030;5.572;2022-11-22T02:32:26;19.79;;;6.16;;
15516;SDS011;7860;52.030;5.572;2022-11-22T02:33:26;15.20;;;5.86;;
15516;SDS011;7860;52.030;5.572;2022-11-22T02:34:27;17.85;;;5.60;;
15516;SDS011;7860;52.030;5.572;2022-11-22T02:35:28;14.83;;;5.38;;
15516;SDS011;7860;52.030;5.572;2022-11-22T02:36:30;16.50;;;5.58;;
15516;SDS011;7860;52.030;5.572;2022-11-22T02:37:30;14.06;;;5.62;;
15516;SDS011;7860;52.030;5.572;2022-11-22T02:38:31;14.33;;;5.32;;
15516;SDS011;7860;52.030;5.572;2022-11-22T02:39:31;17.47;;;5.11;;
15516;SDS011;7860;52.030;5.572;2022-11-22T02:40:31;16.93;;;5.51;;
15516;SDS011;7860;52.030;5.572;2022-11-22T02:41:32;16.82;;;5.35;;
15516;SDS011;7860;52.030;5.572;2022-11-22T02:42:32;17.80;;;5.80;;
15516;SDS011;7860;52.030;5.572;2022-11-22T02:43:33;16.65;;;5.44;;
15516;SDS011;7860;52.030;5.572;2022-11-22T02:44:33;16.51;;;5.75;;
15516;SDS011;7860;52.030;5.572;2022-11-22T02:45:34;16.95;;;5.49;;
15516;SDS011;7860;52.030;5.572;2022-11-22T02:46:35;17.71;;;5.58;;
15516;SDS011;7860;52.030;5.572;2022-11-22T02:47:35;16.07;;;6.23;;
15516;SDS011;7860;52.030;5.572;2022-11-22T02:48:39;19.15;;;5.85;;
15516;SDS011;7860;52.030;5.572;2022-11-22T02:49:36;16.71;;;5.67;;
15516;SDS011;7860;52.030;5.572;2022-11-22T02:50:36;21.05;;;6.51;;
15516;SDS011;7860;52.030;5.572;2022-11-22T02:51:36;20.75;;;6.04;;
15516;SDS011;7860;52.030;5.572;2022-11-22T02:52:36;20.19;;;6.05;;
15516;SDS011;7860;52.030;5.572;2022-11-22T02:53:37;18.03;;;5.53;;
15516;SDS011;7860;52.030;5.572;2022-11-22T02:54:38;16.91;;;5.56;;
15516;SDS011;7860;52.030;5.572;2022-11-22T02:55:39;17.91;;;5.77;;
15516;SDS011;7860;52.030;5.572;2022-11-22T02:56:39;18.24;;;5.68;;
15516;SDS011;7860;52.030;5.572;2022-11-22T02:57:40;15.53;;;5.20;;
15516;SDS011;7860;52.030;5.572;2022-11-22T02:58:41;17.65;;;5.62;;
15516;SDS011;7860;52.030;5.572;2022-11-22T02:59:42;21.44;;;5.75;;
15516;SDS011;7860;52.030;5.572;2022-11-22T03:00:42;19.16;;;5.48;;
15516;SDS011;7860;52.030;5.572;2022-11-22T03:01:43;19.54;;;5.38;;
15516;SDS011;7860;52.030;5.572;2022-11-22T03:02:44;16.72;;;5.54;;
15516;SDS011;7860;52.030;5.572;2022-11-22T03:03:45;17.55;;;5.26;;
15516;SDS011;7860;52.030;5.572;2022-11-22T03:04:45;18.47;;;5.65;;
15516;SDS011;7860;52.030;5.572;2022-11-22T03:05:46;22.49;;;5.12;;
15516;SDS011;7860;52.030;5.572;2022-11-22T03:06:46;16.54;;;4.97;;
15516;SDS011;7860;52.030;5.572;2022-11-22T03:07:47;17.15;;;4.98;;
15516;SDS011;7860;52.030;5.572;2022-11-22T03:08:47;15.66;;;4.54;;
15516;SDS011;7860;52.030;5.572;2022-11-22T03:09:48;15.54;;;5.15;;
15516;SDS011;7860;52.030;5.572;2022-11-22T03:10:48;20.70;;;5.23;;
15516;SDS011;7860;52.030;5.572;2022-11-22T03:11:49;22.09;;;5.00;;
15516;SDS011;7860;52.030;5.572;2022-11-22T03:12:49;16.41;;;4.73;;
15516;SDS011;7860;52.030;5.572;2022-11-22T03:13:50;20.76;;;5.22;;
15516;SDS011;7860;52.030;5.572;2022-11-22T03:14:50;17.39;;;5.03;;
15516;SDS011;7860;52.030;5.572;2022-11-22T03:15:50;19.38;;;5.21;;
15516;SDS011;7860;52.030;5.572;2022-11-22T03:16:51;17.43;;;4.80;;
15516;SDS011;7860;52.030;5.572;2022-11-22T03:17:55;17.16;;;4.82;;
15516;SDS011;7860;52.030;5.572;2022-11-22T03:18:52;19.08;;;5.26;;
15516;SDS011;7860;52.030;5.572;2022-11-22T03:19:53;18.14;;;4.91;;
15516;SDS011;7860;52.030;5.572;2022-11-22T03:20:53;16.52;;;4.78;;
15516;SDS011;7860;52.030;5.572;2022-11-22T03:21:54;19.26;;;4.76;;
15516;SDS011;7860;52.030;5.572;2022-11-22T03:22:54;16.93;;;4.95;;
15516;SDS011;7860;52.030;5.572;2022-11-22T03:23:55;15.37;;;4.16;;
15516;SDS011;7860;52.030;5.572;2022-11-22T03:24:55;17.84;;;4.84;;
15516;SDS011;7860;52.030;5.572;2022-11-22T03:25:56;16.51;;;4.48;;
15516;SDS011;7860;52.030;5.572;2022-11-22T03:26:57;17.52;;;4.79;;
15516;SDS011;7860;52.030;5.572;2022-11-22T03:27:57;16.95;;;4.41;;
15516;SDS011;7860;52.030;5.572;2022-11-22T03:28:58;19.98;;;4.56;;
15516;SDS011;7860;52.030;5.572;2022-11-22T03:29:58;16.09;;;4.13;;
15516;SDS011;7860;52.030;5.572;2022-11-22T03:30:59;16.92;;;4.38;;
15516;SDS011;7860;52.030;5.572;2022-11-22T03:31:59;16.90;;;4.21;;
15516;SDS011;7860;52.030;5.572;2022-11-22T03:33:00;16.30;;;3.90;;
15516;SDS011;7860;52.030;5.572;2022-11-22T03:34:00;16.25;;;3.94;;
15516;SDS011;7860;52.030;5.572;2022-11-22T03:35:01;18.46;;;4.31;;
15516;SDS011;7860;52.030;5.572;2022-11-22T03:36:01;18.02;;;4.02;;
15516;SDS011;7860;52.030;5.572;2022-11-22T03:37:02;18.48;;;4.46;;
15516;SDS011;7860;52.030;5.572;2022-11-22T03:38:03;19.22;;;3.89;;
15516;SDS011;7860;52.030;5.572;2022-11-22T03:39:03;14.16;;;3.90;;
15516;SDS011;7860;52.030;5.572;2022-11-22T03:40:04;17.29;;;3.91;;
15516;SDS011;7860;52.030;5.572;2022-11-22T03:41:03;17.32;;;4.30;;
15516;SDS011;7860;52.030;5.572;2022-11-22T03:42:04;18.65;;;3.98;;
15516;SDS011;7860;52.030;5.572;2022-11-22T03:43:04;18.77;;;3.97;;
15516;SDS011;7860;52.030;5.572;2022-11-22T03:44:05;13.51;;;3.61;;
15516;SDS011;7860;52.030;5.572;2022-11-22T03:45:05;19.11;;;4.19;;
15516;SDS011;7860;52.030;5.572;2022-11-22T03:46:11;16.50;;;3.85;;
15516;SDS011;7860;52.030;5.572;2022-11-22T03:47:07;14.90;;;3.93;;
15516;SDS011;7860;52.030;5.572;2022-11-22T03:48:07;16.29;;;3.97;;
15516;SDS011;7860;52.030;5.572;2022-11-22T03:49:09;14.50;;;3.77;;
15516;SDS011;7860;52.030;5.572;2022-11-22T03:50:08;16.61;;;3.63;;
15516;SDS011;7860;52.030;5.572;2022-11-22T03:51:09;19.94;;;3.95;;
15516;SDS011;7860;52.030;5.572;2022-11-22T03:52:10;13.84;;;3.48;;
15516;SDS011;7860;52.030;5.572;2022-11-22T03:53:10;18.20;;;4.04;;
15516;SDS011;7860;52.030;5.572;2022-11-22T03:54:11;13.33;;;3.54;;
15516;SDS011;7860;52.030;5.572;2022-11-22T03:55:12;18.15;;;3.63;;
15516;SDS011;7860;52.030;5.572;2022-11-22T03:56:12;16.53;;;3.94;;
15516;SDS011;7860;52.030;5.572;2022-11-22T03:57:13;17.38;;;3.92;;
15516;SDS011;7860;52.030;5.572;2022-11-22T03:58:14;16.99;;;3.61;;
15516;SDS011;7860;52.030;5.572;2022-11-22T03:59:14;16.42;;;3.71;;
15516;SDS011;7860;52.030;5.572;2022-11-22T04:00:15;20.58;;;3.73;;
15516;SDS011;7860;52.030;5.572;2022-11-22T04:01:15;20.08;;;3.71;;
15516;SDS011;7860;52.030;5.572;2022-11-22T04:02:15;16.86;;;3.40;;
15516;SDS011;7860;52.030;5.572;2022-11-22T04:03:15;15.54;;;3.83;;
15516;SDS011;7860;52.030;5.572;2022-11-22T04:04:16;18.31;;;3.29;;
15516;SDS011;7860;52.030;5.572;2022-11-22T04:05:16;20.27;;;3.89;;
15516;SDS011;7860;52.030;5.572;2022-11-22T04:06:17;17.86;;;3.85;;
15516;SDS011;7860;52.030;5.572;2022-11-22T04:07:17;15.10;;;3.38;;
15516;SDS011;7860;52.030;5.572;2022-11-22T04:08:18;18.32;;;3.78;;
15516;SDS011;7860;52.030;5.572;2022-11-22T04:09:18;15.50;;;3.55;;
15516;SDS011;7860;52.030;5.572;2022-11-22T04:10:19;16.43;;;3.81;;
15516;SDS011;7860;52.030;5.572;2022-11-22T04:11:19;13.26;;;3.73;;
15516;SDS011;7860;52.030;5.572;2022-11-22T04:12:20;17.50;;;3.60;;
15516;SDS011;7860;52.030;5.572;2022-11-22T04:13:21;14.62;;;3.69;;
15516;SDS011;7860;52.030;5.572;2022-11-22T04:14:22;16.34;;;3.45;;
15516;SDS011;7860;52.030;5.572;2022-11-22T04:15:23;18.20;;;3.93;;
15516;SDS011;7860;52.030;5.572;2022-11-22T04:16:23;12.98;;;3.44;;
15516;SDS011;7860;52.030;5.572;2022-11-22T04:17:24;18.06;;;3.84;;
15516;SDS011;7860;52.030;5.572;2022-11-22T04:18:24;16.89;;;4.07;;
15516;SDS011;7860;52.030;5.572;2022-11-22T04:19:25;19.58;;;3.89;;
15516;SDS011;7860;52.030;5.572;2022-11-22T04:20:25;20.13;;;3.88;;
15516;SDS011;7860;52.030;5.572;2022-11-22T04:21:25;16.01;;;3.21;;
15516;SDS011;7860;52.030;5.572;2022-11-22T04:22:26;19.84;;;3.53;;
15516;SDS011;7860;52.030;5.572;2022-11-22T04:23:26;19.72;;;4.25;;
15516;SDS011;7860;52.030;5.572;2022-11-22T04:24:26;16.23;;;3.97;;
15516;SDS011;7860;52.030;5.572;2022-11-22T04:25:27;15.76;;;4.01;;
15516;SDS011;7860;52.030;5.572;2022-11-22T04:26:27;16.62;;;3.88;;
15516;SDS011;7860;52.030;5.572;2022-11-22T04:27:28;21.09;;;3.74;;
15516;SDS011;7860;52.030;5.572;2022-11-22T04:28:28;16.71;;;3.95;;
15516;SDS011;7860;52.030;5.572;2022-11-22T04:29:29;14.71;;;3.77;;
15516;SDS011;7860;52.030;5.572;2022-11-22T04:30:30;20.36;;;4.56;;
15516;SDS011;7860;52.030;5.572;2022-11-22T04:31:30;16.61;;;4.16;;
15516;SDS011;7860;52.030;5.572;2022-11-22T04:32:31;22.24;;;4.58;;
15516;SDS011;7860;52.030;5.572;2022-11-22T04:33:31;20.08;;;4.04;;
15516;SDS011;7860;52.030;5.572;2022-11-22T04:34:32;18.42;;;4.50;;
15516;SDS011;7860;52.030;5.572;2022-11-22T04:35:32;17.74;;;4.01;;
15516;SDS011;7860;52.030;5.572;2022-11-22T04:36:33;18.54;;;4.35;;
15516;SDS011;7860;52.030;5.572;2022-11-22T04:37:33;19.98;;;4.35;;
15516;SDS011;7860;52.030;5.572;2022-11-22T04:38:34;20.24;;;4.80;;
15516;SDS011;7860;52.030;5.572;2022-11-22T04:39:34;17.85;;;4.48;;
15516;SDS011;7860;52.030;5.572;2022-11-22T04:40:35;18.10;;;4.36;;
15516;SDS011;7860;52.030;5.572;2022-11-22T04:41:36;17.96;;;4.65;;
15516;SDS011;7860;52.030;5.572;2022-11-22T04:42:36;22.64;;;5.06;;
15516;SDS011;7860;52.030;5.572;2022-11-22T04:43:36;18.99;;;4.84;;
15516;SDS011;7860;52.030;5.572;2022-11-22T04:44:37;17.81;;;4.39;;
15516;SDS011;7860;52.030;5.572;2022-11-22T04:45:38;21.06;;;5.23;;
15516;SDS011;7860;52.030;5.572;2022-11-22T04:46:38;17.77;;;4.63;;
15516;SDS011;7860;52.030;5.572;2022-11-22T04:47:39;17.39;;;4.37;;
15516;SDS011;7860;52.030;5.572;2022-11-22T04:48:39;16.14;;;4.37;;
15516;SDS011;7860;52.030;5.572;2022-11-22T04:49:40;19.40;;;4.53;;
15516;SDS011;7860;52.030;5.572;2022-11-22T04:50:41;18.48;;;4.56;;
15516;SDS011;7860;52.030;5.572;2022-11-22T04:51:41;20.67;;;4.55;;
15516;SDS011;7860;52.030;5.572;2022-11-22T04:52:42;16.12;;;4.38;;
15516;SDS011;7860;52.030;5.572;2022-11-22T04:53:42;17.12;;;4.46;;
15516;SDS011;7860;52.030;5.572;2022-11-22T04:54:43;17.76;;;4.56;;
15516;SDS011;7860;52.030;5.572;2022-11-22T04:55:44;21.72;;;4.57;;
15516;SDS011;7860;52.030;5.572;2022-11-22T04:56:44;16.54;;;4.53;;
15516;SDS011;7860;52.030;5.572;2022-11-22T04:57:44;19.08;;;4.79;;
15516;SDS011;7860;52.030;5.572;2022-11-22T04:58:45;20.31;;;4.50;;
15516;SDS011;7860;52.030;5.572;2022-11-22T04:59:46;16.87;;;4.10;;
15516;SDS011;7860;52.030;5.572;2022-11-22T05:00:46;17.20;;;4.27;;
15516;SDS011;7860;52.030;5.572;2022-11-22T05:01:47;18.27;;;4.36;;
15516;SDS011;7860;52.030;5.572;2022-11-22T05:02:48;21.96;;;4.66;;
15516;SDS011;7860;52.030;5.572;2022-11-22T05:03:47;19.57;;;4.58;;
15516;SDS011;7860;52.030;5.572;2022-11-22T05:04:48;21.96;;;5.04;;
15516;SDS011;7860;52.030;5.572;2022-11-22T05:05:48;15.83;;;4.49;;
15516;SDS011;7860;52.030;5.572;2022-11-22T05:06:49;23.76;;;4.69;;
15516;SDS011;7860;52.030;5.572;2022-11-22T05:07:50;18.24;;;5.01;;
15516;SDS011;7860;52.030;5.572;2022-11-22T05:08:51;16.41;;;4.91;;
15516;SDS011;7860;52.030;5.572;2022-11-22T05:09:51;21.12;;;4.84;;
15516;SDS011;7860;52.030;5.572;2022-11-22T05:10:52;19.47;;;5.15;;
15516;SDS011;7860;52.030;5.572;2022-11-22T05:11:53;16.65;;;5.02;;
15516;SDS011;7860;52.030;5.572;2022-11-22T05:12:53;16.78;;;4.78;;
15516;SDS011;7860;52.030;5.572;2022-11-22T05:13:54;17.96;;;4.34;;
15516;SDS011;7860;52.030;5.572;2022-11-22T05:14:55;19.43;;;4.50;;
15516;SDS011;7860;52.030;5.572;2022-11-22T05:15:56;18.19;;;4.73;;
15516;SDS011;7860;52.030;5.572;2022-11-22T05:16:56;18.53;;;5.35;;
15516;SDS011;7860;52.030;5.572;2022-11-22T05:17:57;21.75;;;4.93;;
15516;SDS011;7860;52.030;5.572;2022-11-22T05:18:58;23.01;;;4.81;;
15516;SDS011;7860;52.030;5.572;2022-11-22T05:19:58;21.34;;;4.81;;
15516;SDS011;7860;52.030;5.572;2022-11-22T05:21:02;17.78;;;4.80;;
15516;SDS011;7860;52.030;5.572;2022-11-22T05:22:00;19.73;;;4.26;;
15516;SDS011;7860;52.030;5.572;2022-11-22T05:23:00;17.91;;;4.22;;
15516;SDS011;7860;52.030;5.572;2022-11-22T05:24:01;18.19;;;3.82;;
15516;SDS011;7860;52.030;5.572;2022-11-22T05:25:02;15.20;;;3.74;;
15516;SDS011;7860;52.030;5.572;2022-11-22T05:26:02;17.69;;;3.65;;
15516;SDS011;7860;52.030;5.572;2022-11-22T05:27:03;15.88;;;3.32;;
15516;SDS011;7860;52.030;5.572;2022-11-22T05:28:04;17.97;;;3.82;;
15516;SDS011;7860;52.030;5.572;2022-11-22T05:29:06;16.82;;;4.05;;
15516;SDS011;7860;52.030;5.572;2022-11-22T05:30:06;17.17;;;4.01;;
15516;SDS011;7860;52.030;5.572;2022-11-22T05:31:06;17.34;;;4.14;;
15516;SDS011;7860;52.030;5.572;2022-11-22T05:32:06;15.30;;;4.30;;
15516;SDS011;7860;52.030;5.572;2022-11-22T05:33:07;19.16;;;4.18;;
15516;SDS011;7860;52.030;5.572;2022-11-22T05:34:08;17.50;;;3.99;;
15516;SDS011;7860;52.030;5.572;2022-11-22T05:35:09;21.80;;;4.45;;
15516;SDS011;7860;52.030;5.572;2022-11-22T05:36:10;16.38;;;4.78;;
15516;SDS011;7860;52.030;5.572;2022-11-22T05:37:10;18.86;;;4.70;;
15516;SDS011;7860;52.030;5.572;2022-11-22T05:38:11;18.64;;;5.13;;
15516;SDS011;7860;52.030;5.572;2022-11-22T05:39:11;20.31;;;4.89;;
15516;SDS011;7860;52.030;5.572;2022-11-22T05:40:12;18.08;;;4.54;;
15516;SDS011;7860;52.030;5.572;2022-11-22T05:41:13;18.28;;;4.81;;
15516;SDS011;7860;52.030;5.572;2022-11-22T05:42:12;19.06;;;4.57;;
15516;SDS011;7860;52.030;5.572;2022-11-22T05:43:13;19.14;;;5.52;;
15516;SDS011;7860;52.030;5.572;2022-11-22T05:44:13;17.01;;;4.78;;
15516;SDS011;7860;52.030;5.572;2022-11-22T05:45:14;17.44;;;4.93;;
15516;SDS011;7860;52.030;5.572;2022-11-22T05:46:16;20.55;;;5.38;;
15516;SDS011;7860;52.030;5.572;2022-11-22T05:47:15;23.08;;;5.28;;
15516;SDS011;7860;52.030;5.572;2022-11-22T05:48:16;20.00;;;6.05;;
15516;SDS011;7860;52.030;5.572;2022-11-22T05:49:17;21.65;;;6.49;;
15516;SDS011;7860;52.030;5.572;2022-11-22T05:50:17;16.95;;;5.62;;
15516;SDS011;7860;52.030;5.572;2022-11-22T05:51:19;22.45;;;5.96;;
15516;SDS011;7860;52.030;5.572;2022-11-22T05:52:18;19.86;;;5.30;;
15516;SDS011;7860;52.030;5.572;2022-11-22T05:53:18;17.16;;;4.72;;
15516;SDS011;7860;52.030;5.572;2022-11-22T05:54:19;22.24;;;5.30;;
15516;SDS011;7860;52.030;5.572;2022-11-22T05:55:19;20.36;;;5.16;;
15516;SDS011;7860;52.030;5.572;2022-11-22T05:56:20;15.38;;;4.98;;
15516;SDS011;7860;52.030;5.572;2022-11-22T05:57:20;21.07;;;4.86;;
15516;SDS011;7860;52.030;5.572;2022-11-22T05:58:20;20.31;;;5.31;;
15516;SDS011;7860;52.030;5.572;2022-11-22T05:59:21;19.13;;;4.76;;
15516;SDS011;7860;52.030;5.572;2022-11-22T06:00:21;18.18;;;5.15;;
15516;SDS011;7860;52.030;5.572;2022-11-22T06:01:23;19.72;;;5.87;;
15516;SDS011;7860;52.030;5.572;2022-11-22T06:02:22;20.40;;;5.43;;
15516;SDS011;7860;52.030;5.572;2022-11-22T06:03:23;22.15;;;4.88;;
15516;SDS011;7860;52.030;5.572;2022-11-22T06:04:23;21.42;;;5.42;;